Time;durP1;ratioP1;P1;durP2;ratioP2;P2;SDS_P1;SDS_P2;PMS_P1;PMS_P2;Temp;Humidity;BMP_temperature;BMP_pressure;BME280_temperature;BME280_humidity;BME280_pressure;Samples;Min_cycle;Max_cycle;Signal;HPM_P1;HPM_P2
2021/10/31 00:00:56;;;;;;;25.17;18.20;;;12.60;84.50;;;;;;5089488;28;20024;-62
2021/10/31 00:03:21;;;;;;;25.25;18.13;;;12.60;84.50;;;;;;5090052;28;20062;-62
2021/10/31 00:05:47;;;;;;;24.40;17.35;;;12.60;84.50;;;;;;5089742;28;20055;-62
2021/10/31 00:08:12;;;;;;;27.85;17.95;;;12.70;84.70;;;;;;5091611;28;20506;-62
2021/10/31 00:10:38;;;;;;;24.10;17.45;;;12.60;84.80;;;;;;5089913;28;20048;-62
2021/10/31 00:13:04;;;;;;;24.75;17.65;;;12.60;84.90;;;;;;5091343;28;20016;-63
2021/10/31 00:15:30;;;;;;;24.10;17.27;;;12.60;84.90;;;;;;5084150;28;20095;-63
2021/10/31 00:17:55;;;;;;;24.40;18.10;;;12.50;84.90;;;;;;5086095;28;20028;-63
2021/10/31 00:20:21;;;;;;;25.15;18.50;;;12.50;84.90;;;;;;5089685;28;20016;-63
2021/10/31 00:22:47;;;;;;;26.02;18.67;;;12.50;85.00;;;;;;5091088;28;20024;-63
2021/10/31 00:25:14;;;;;;;25.33;18.08;;;12.50;85.10;;;;;;5089279;28;20028;-63
2021/10/31 00:27:40;;;;;;;29.58;19.63;;;12.50;85.30;;;;;;5091432;28;20020;-63
2021/10/31 00:30:06;;;;;;;24.92;17.77;;;12.50;85.30;;;;;;5085570;28;20054;-63
2021/10/31 00:32:32;;;;;;;24.90;18.10;;;12.50;85.40;;;;;;5070582;28;20032;-63
2021/10/31 00:34:58;;;;;;;22.70;16.85;;;12.50;85.50;;;;;;5074144;28;20365;-63
2021/10/31 00:37:23;;;;;;;22.10;16.40;;;12.50;86.10;;;;;;5091375;28;20063;-63
2021/10/31 00:39:49;;;;;;;23.30;17.75;;;12.60;85.60;;;;;;5089264;28;20024;-63
2021/10/31 00:42:14;;;;;;;25.33;17.55;;;12.60;85.80;;;;;;5091123;28;20483;-63
2021/10/31 00:44:40;;;;;;;27.48;18.45;;;12.60;85.90;;;;;;5088732;28;20479;-63
2021/10/31 00:47:06;;;;;;;24.73;17.75;;;12.60;85.90;;;;;;5070487;28;20104;-63
2021/10/31 00:49:31;;;;;;;25.77;18.20;;;12.70;86.00;;;;;;5070935;28;20021;-63
2021/10/31 00:51:59;;;;;;;26.80;17.88;;;12.70;86.10;;;;;;5073815;28;20038;-64
2021/10/31 00:54:24;;;;;;;26.85;17.52;;;12.70;86.00;;;;;;5073708;28;20209;-63
2021/10/31 00:56:50;;;;;;;27.05;17.23;;;12.70;86.10;;;;;;5093260;28;20061;-64
2021/10/31 00:59:15;;;;;;;25.50;17.58;;;12.70;86.20;;;;;;5107048;28;20069;-63
2021/10/31 01:01:42;;;;;;;25.15;17.30;;;12.70;86.70;;;;;;5092986;28;20028;-63
2021/10/31 01:04:07;;;;;;;24.17;18.02;;;12.70;86.30;;;;;;5094422;28;20149;-63
2021/10/31 01:06:57;;;;;;;26.42;17.75;;;12.70;86.30;;;;;;5092601;28;20103;-63
2021/10/31 01:10:00;;;;;;;23.00;16.67;;;12.80;86.30;;;;;;5094160;28;20111;-63
2021/10/31 01:12:37;;;;;;;25.25;17.70;;;12.80;86.40;;;;;;5073100;28;20440;-63
2021/10/31 01:15:22;;;;;;;24.35;16.75;;;12.80;86.50;;;;;;5078058;28;20024;-63
2021/10/31 01:18:09;;;;;;;23.08;16.90;;;12.80;86.50;;;;;;5108180;28;20038;-63
2021/10/31 01:20:56;;;;;;;23.38;17.27;;;12.80;86.60;;;;;;5095035;28;20034;-63
2021/10/31 01:23:27;;;;;;;23.30;15.95;;;12.80;86.60;;;;;;5073949;28;20039;-63
2021/10/31 01:26:16;;;;;;;25.63;18.00;;;12.90;86.70;;;;;;5084714;28;20028;-63
2021/10/31 01:29:18;;;;;;;21.95;16.55;;;12.90;86.90;;;;;;5092643;28;20095;-63
2021/10/31 01:32:05;;;;;;;22.95;15.70;;;12.90;86.90;;;;;;5092181;28;20024;-63
2021/10/31 01:34:55;;;;;;;24.45;16.48;;;12.90;86.90;;;;;;5092692;28;20039;-63
2021/10/31 01:37:49;;;;;;;23.67;16.33;;;12.90;87.00;;;;;;5073868;28;20115;-62
2021/10/31 01:40:33;;;;;;;23.25;16.38;;;13.00;87.00;;;;;;5079143;28;20016;-63
2021/10/31 01:43:06;;;;;;;22.77;16.20;;;13.00;87.10;;;;;;5093342;28;20046;-63
2021/10/31 01:45:38;;;;;;;22.00;16.48;;;13.00;87.20;;;;;;5092035;28;20032;-63
2021/10/31 01:48:22;;;;;;;22.58;16.60;;;13.00;87.30;;;;;;5093775;28;20028;-63
2021/10/31 01:50:54;;;;;;;19.63;15.23;;;13.00;87.30;;;;;;5081766;28;20542;-63
2021/10/31 01:53:31;;;;;;;21.73;15.93;;;13.00;87.40;;;;;;5073152;28;20271;-63
2021/10/31 01:56:10;;;;;;;23.48;16.67;;;13.00;87.60;;;;;;5072983;28;20079;-63
2021/10/31 01:58:41;;;;;;;23.23;16.52;;;12.90;87.70;;;;;;5087055;28;20028;-63
2021/10/31 02:01:08;;;;;;;20.92;15.52;;;13.00;87.80;;;;;;5097382;28;20040;-63
2021/10/31 02:03:37;;;;;;;24.77;15.77;;;12.90;88.00;;;;;;5092070;28;20039;-63
2021/10/31 02:06:04;;;;;;;23.73;16.13;;;12.90;88.00;;;;;;5091057;28;20020;-63
2021/10/31 02:08:33;;;;;;;22.90;16.23;;;12.90;88.10;;;;;;5093340;28;20092;-63
2021/10/31 02:10:59;;;;;;;20.63;15.48;;;12.90;88.30;;;;;;5091334;28;20044;-63
2021/10/31 02:13:26;;;;;;;22.25;16.00;;;12.90;88.40;;;;;;5091906;28;20020;-63
2021/10/31 02:15:54;;;;;;;24.88;16.58;;;12.80;88.60;;;;;;5086046;28;20020;-62
2021/10/31 02:18:22;;;;;;;23.15;15.85;;;12.80;88.80;;;;;;5075352;28;20455;-63
2021/10/31 02:20:54;;;;;;;21.85;15.55;;;12.80;89.00;;;;;;5071063;28;20099;-62
2021/10/31 02:23:20;;;;;;;23.83;15.82;;;12.90;89.00;;;;;;5073052;28;20028;-63
2021/10/31 02:25:46;;;;;;;22.05;15.70;;;12.80;89.10;;;;;;5072553;28;20032;-61
2021/10/31 02:28:12;;;;;;;24.83;16.88;;;12.80;89.20;;;;;;5072938;28;20555;-60
2021/10/31 02:30:38;;;;;;;20.98;15.10;;;12.80;89.40;;;;;;5072313;28;20119;-61
2021/10/31 02:33:03;;;;;;;21.85;16.25;;;12.70;89.50;;;;;;5072548;28;20095;-62
2021/10/31 02:35:29;;;;;;;20.30;15.40;;;12.70;89.60;;;;;;5072048;28;20493;-61
2021/10/31 02:37:54;;;;;;;21.27;14.40;;;12.70;89.80;;;;;;5084948;28;20491;-61
2021/10/31 02:40:22;;;;;;;23.40;15.35;;;12.70;89.90;;;;;;5093056;28;20016;-62
2021/10/31 02:42:48;;;;;;;24.17;16.60;;;12.70;90.00;;;;;;5090107;28;20032;-62
2021/10/31 02:45:14;;;;;;;20.77;14.43;;;12.60;90.00;;;;;;5091772;28;20062;-62
2021/10/31 02:47:52;;;;;;;22.85;16.45;;;12.60;90.10;;;;;;5078058;28;20412;-62
2021/10/31 02:50:34;;;;;;;21.55;15.57;;;12.60;90.30;;;;;;5092840;28;20012;-61
2021/10/31 02:53:09;;;;;;;23.25;15.85;;;12.60;90.30;;;;;;5077162;28;20048;-61
2021/10/31 02:55:46;;;;;;;22.67;15.10;;;12.60;90.30;;;;;;5071828;28;20032;-62
2021/10/31 02:58:39;;;;;;;21.65;14.60;;;12.60;90.40;;;;;;5082435;28;20042;-62
2021/10/31 03:01:06;;;;;;;23.23;15.32;;;12.60;90.40;;;;;;5092215;28;20090;-61
2021/10/31 03:03:34;;;;;;;21.88;15.68;;;12.60;90.50;;;;;;5089989;28;20044;-62
2021/10/31 03:06:01;;;;;;;20.67;15.38;;;12.60;90.50;;;;;;5091960;28;20024;-63
2021/10/31 03:08:28;;;;;;;19.33;14.02;;;12.60;90.60;;;;;;5073103;28;20033;-62
2021/10/31 03:10:57;;;;;;;23.17;14.85;;;12.60;90.60;;;;;;5071909;28;20814;-63
2021/10/31 03:13:24;;;;;;;21.63;14.57;;;12.60;90.70;;;;;;5088240;28;20028;-62
2021/10/31 03:15:49;;;;;;;21.38;15.05;;;12.60;90.80;;;;;;5092049;28;20035;-62
2021/10/31 03:18:15;;;;;;;19.92;13.13;;;12.60;90.80;;;;;;5074566;28;20025;-62
2021/10/31 03:20:40;;;;;;;20.05;14.57;;;12.60;90.90;;;;;;5071374;28;20471;-62
2021/10/31 03:23:06;;;;;;;18.42;13.13;;;12.70;91.00;;;;;;5085233;28;20126;-62
2021/10/31 03:25:32;;;;;;;20.10;13.88;;;12.70;91.00;;;;;;5091942;28;20460;-62
2021/10/31 03:27:57;;;;;;;17.80;13.55;;;12.70;91.10;;;;;;5089941;28;20480;-61
2021/10/31 03:30:23;;;;;;;18.67;13.45;;;12.70;91.10;;;;;;5091986;28;20035;-61
2021/10/31 03:32:48;;;;;;;21.90;14.25;;;12.70;91.20;;;;;;5089403;28;20449;-62
2021/10/31 03:35:14;;;;;;;19.00;13.45;;;12.70;91.20;;;;;;5091799;28;20039;-62
2021/10/31 03:37:42;;;;;;;20.13;15.10;;;12.70;91.30;;;;;;5079259;28;20020;-62
2021/10/31 03:40:07;;;;;;;17.05;12.43;;;12.70;91.30;;;;;;5071594;28;20388;-62
2021/10/31 03:42:33;;;;;;;16.90;12.63;;;12.70;91.40;;;;;;5081058;28;20026;-61
2021/10/31 03:44:58;;;;;;;18.42;12.88;;;12.70;91.50;;;;;;5091403;28;20024;-61
2021/10/31 03:47:26;;;;;;;16.33;12.40;;;12.70;91.60;;;;;;5080813;28;20107;-62
2021/10/31 03:49:52;;;;;;;16.38;12.40;;;12.80;91.70;;;;;;5071161;28;20028;-62
2021/10/31 03:52:17;;;;;;;16.98;12.70;;;12.80;91.70;;;;;;5078363;28;20016;-62
2021/10/31 03:54:43;;;;;;;15.20;11.25;;;12.80;91.80;;;;;;5090973;28;20048;-62
2021/10/31 03:57:09;;;;;;;18.77;12.30;;;12.80;91.80;;;;;;5083687;28;20029;-62
2021/10/31 03:59:35;;;;;;;16.58;11.95;;;12.90;92.10;;;;;;5071242;28;20035;-62
2021/10/31 04:02:01;;;;;;;18.58;11.23;;;12.90;92.10;;;;;;5076428;28;20531;-62
2021/10/31 04:04:26;;;;;;;17.05;11.63;;;12.90;91.90;;;;;;5091294;28;20039;-62
2021/10/31 04:06:52;;;;;;;17.20;12.07;;;13.00;91.90;;;;;;5085982;28;20085;-63
2021/10/31 04:09:17;;;;;;;17.83;12.18;;;13.00;91.90;;;;;;5071174;28;20115;-62
2021/10/31 04:11:43;;;;;;;16.70;11.95;;;13.00;92.00;;;;;;5073932;28;20024;-62
2021/10/31 04:14:08;;;;;;;14.88;10.98;;;13.00;92.00;;;;;;5090160;28;20375;-61
2021/10/31 04:16:34;;;;;;;15.82;10.75;;;13.00;92.00;;;;;;5081198;28;20035;-62
2021/10/31 04:18:59;;;;;;;16.50;11.40;;;13.10;92.10;;;;;;5071097;28;20446;-62
2021/10/31 04:21:25;;;;;;;14.88;10.88;;;13.10;92.10;;;;;;5070782;28;20032;-62
2021/10/31 04:23:51;;;;;;;13.52;10.45;;;13.10;92.10;;;;;;5070807;28;20041;-62
2021/10/31 04:26:16;;;;;;;15.93;10.95;;;13.10;92.20;;;;;;5072018;28;20025;-62
2021/10/31 04:28:41;;;;;;;14.23;10.38;;;13.10;92.20;;;;;;5075431;28;20020;-62
2021/10/31 04:31:07;;;;;;;15.27;10.63;;;13.10;92.30;;;;;;5073242;28;20375;-62
2021/10/31 04:33:34;;;;;;;15.05;10.95;;;13.10;92.30;;;;;;5092821;28;20020;-62
2021/10/31 04:35:59;;;;;;;15.63;10.60;;;13.10;92.40;;;;;;5094916;28;20031;-62
2021/10/31 04:38:29;;;;;;;15.07;10.32;;;13.10;92.40;;;;;;5076433;28;20123;-62
2021/10/31 04:40:55;;;;;;;15.50;10.93;;;13.10;92.50;;;;;;5074577;28;20082;-62
2021/10/31 04:43:23;;;;;;;15.82;11.05;;;13.10;92.50;;;;;;5090563;28;20036;-61
2021/10/31 04:45:50;;;;;;;16.60;10.95;;;13.00;92.50;;;;;;5094664;28;20031;-62
2021/10/31 04:48:15;;;;;;;14.45;10.15;;;13.10;92.60;;;;;;5077212;28;20029;-62
2021/10/31 04:50:41;;;;;;;15.68;10.65;;;13.10;92.70;;;;;;5073026;28;20017;-62
2021/10/31 04:53:08;;;;;;;13.32;10.40;;;13.10;92.70;;;;;;5088524;28;20442;-62
2021/10/31 04:55:38;;;;;;;15.60;10.95;;;13.10;92.70;;;;;;5094701;28;20040;-62
2021/10/31 04:58:04;;;;;;;13.52;9.65;;;13.10;92.80;;;;;;5090813;28;20111;-63
2021/10/31 05:00:30;;;;;;;14.18;10.48;;;13.00;93.00;;;;;;5076816;28;20036;-62
2021/10/31 05:02:56;;;;;;;16.08;11.13;;;13.00;92.90;;;;;;5092981;28;20107;-61
2021/10/31 05:05:22;;;;;;;14.95;10.68;;;13.00;92.90;;;;;;5094423;28;20028;-62
2021/10/31 05:07:49;;;;;;;14.32;10.65;;;13.00;92.90;;;;;;5080462;28;20377;-63
2021/10/31 05:10:18;;;;;;;15.30;10.70;;;13.00;93.00;;;;;;5074397;28;20492;-63
2021/10/31 05:12:44;;;;;;;14.80;10.68;;;13.00;93.00;;;;;;5085136;28;20039;-63
2021/10/31 05:15:10;;;;;;;17.15;10.40;;;13.00;93.10;;;;;;5093166;28;20027;-62
2021/10/31 05:17:36;;;;;;;15.32;11.23;;;13.00;93.10;;;;;;5074042;28;20103;-63
2021/10/31 05:20:03;;;;;;;15.57;11.15;;;13.00;93.20;;;;;;5073799;28;20060;-63
2021/10/31 05:22:28;;;;;;;16.52;11.93;;;13.00;93.20;;;;;;5083570;28;20028;-63
2021/10/31 05:24:54;;;;;;;15.57;10.85;;;13.00;93.30;;;;;;5094089;28;20063;-63
2021/10/31 05:27:20;;;;;;;15.82;11.05;;;13.00;93.30;;;;;;5092230;28;20016;-62
2021/10/31 05:29:45;;;;;;;18.38;12.50;;;13.00;93.40;;;;;;5094235;28;20045;-63
2021/10/31 05:32:11;;;;;;;15.60;11.27;;;13.00;93.30;;;;;;5091655;28;20493;-63
2021/10/31 05:34:37;;;;;;;16.50;12.40;;;13.10;93.40;;;;;;5092157;28;20024;-62
2021/10/31 05:37:02;;;;;;;18.83;12.18;;;13.10;93.40;;;;;;5087145;28;20043;-62
2021/10/31 05:39:29;;;;;;;15.90;11.73;;;13.10;93.40;;;;;;5073763;28;20353;-62
2021/10/31 05:41:55;;;;;;;19.27;12.30;;;13.20;93.60;;;;;;5073199;28;20492;-62
2021/10/31 05:44:20;;;;;;;16.52;11.43;;;13.20;93.40;;;;;;5073451;28;20090;-62
2021/10/31 05:46:46;;;;;;;15.63;11.15;;;13.20;93.40;;;;;;5076682;28;20016;-62
2021/10/31 05:49:12;;;;;;;16.15;12.20;;;13.20;93.40;;;;;;5093318;28;20056;-62
2021/10/31 05:51:38;;;;;;;15.63;11.00;;;13.30;93.40;;;;;;5091606;28;20052;-62
2021/10/31 05:54:03;;;;;;;17.33;11.00;;;13.30;93.40;;;;;;5093358;28;20055;-63
2021/10/31 05:56:29;;;;;;;18.83;12.07;;;13.30;93.40;;;;;;5091944;28;20031;-63
2021/10/31 05:58:54;;;;;;;15.43;11.35;;;13.30;93.40;;;;;;5083663;28;20028;-62
2021/10/31 06:01:20;;;;;;;17.17;12.23;;;13.30;93.40;;;;;;5073109;28;20032;-62
2021/10/31 06:03:45;;;;;;;15.02;11.00;;;13.40;93.40;;;;;;5087046;28;20395;-62
2021/10/31 06:06:11;;;;;;;17.58;11.18;;;13.30;93.30;;;;;;5093363;28;20475;-62
2021/10/31 06:08:36;;;;;;;14.82;10.77;;;13.40;93.30;;;;;;5073287;28;20447;-62
2021/10/31 06:11:02;;;;;;;14.82;11.30;;;13.40;93.30;;;;;;5073072;28;20021;-62
2021/10/31 06:13:27;;;;;;;16.42;11.13;;;13.40;93.30;;;;;;5072717;28;20032;-62
2021/10/31 06:15:53;;;;;;;17.27;12.27;;;13.30;93.30;;;;;;5077270;28;20020;-62
2021/10/31 06:18:19;;;;;;;17.50;11.63;;;13.30;93.30;;;;;;5071692;28;20043;-63
2021/10/31 06:20:46;;;;;;;14.98;10.85;;;13.30;93.30;;;;;;5072268;28;20075;-63
2021/10/31 06:23:14;;;;;;;16.55;10.93;;;13.30;93.30;;;;;;5076826;28;20468;-63
2021/10/31 06:25:40;;;;;;;15.60;11.05;;;13.30;93.30;;;;;;5074277;28;20085;-63
2021/10/31 06:28:06;;;;;;;15.10;10.77;;;13.30;93.20;;;;;;5072682;28;20033;-64
2021/10/31 06:30:31;;;;;;;16.08;11.85;;;13.30;93.20;;;;;;5078210;28;20035;-63
2021/10/31 06:32:57;;;;;;;14.70;10.88;;;13.30;93.30;;;;;;5074629;28;20400;-63
2021/10/31 06:35:22;;;;;;;15.30;12.05;;;13.30;93.30;;;;;;5072115;28;20035;-63
2021/10/31 06:37:49;;;;;;;17.90;12.85;;;13.30;93.20;;;;;;5075862;28;20032;-63
2021/10/31 06:40:16;;;;;;;15.90;11.07;;;13.30;93.30;;;;;;5071122;28;20380;-63
2021/10/31 06:42:42;;;;;;;17.75;12.15;;;13.30;93.30;;;;;;5080916;28;20028;-63
2021/10/31 06:45:08;;;;;;;18.70;12.30;;;13.20;93.30;;;;;;5078977;28;20032;-64
2021/10/31 06:47:34;;;;;;;14.73;11.18;;;13.30;93.30;;;;;;5076571;28;20039;-63
2021/10/31 06:50:00;;;;;;;16.95;11.40;;;13.20;93.30;;;;;;5070663;28;20029;-64
2021/10/31 06:52:26;;;;;;;14.40;11.07;;;13.30;93.40;;;;;;5077670;28;20016;-64
2021/10/31 06:54:52;;;;;;;16.60;12.20;;;13.30;93.40;;;;;;5079255;28;20068;-64
2021/10/31 06:57:18;;;;;;;17.08;11.68;;;13.20;93.40;;;;;;5076658;28;20108;-64
2021/10/31 06:59:43;;;;;;;17.17;11.88;;;13.30;93.50;;;;;;5075684;28;20103;-63
2021/10/31 07:02:09;;;;;;;16.58;12.50;;;13.30;93.60;;;;;;5079465;28;20031;-64
2021/10/31 07:04:35;;;;;;;16.88;12.35;;;13.40;93.60;;;;;;5072539;28;20497;-64
2021/10/31 07:07:00;;;;;;;17.35;12.38;;;13.40;93.60;;;;;;5071631;28;20490;-63
2021/10/31 07:09:26;;;;;;;16.80;12.48;;;13.40;93.60;;;;;;5076779;28;20020;-64
2021/10/31 07:11:51;;;;;;;19.75;13.77;;;13.50;93.60;;;;;;5078274;28;20492;-64
2021/10/31 07:14:17;;;;;;;17.90;12.98;;;13.50;93.50;;;;;;5075254;28;20046;-64
2021/10/31 07:16:42;;;;;;;16.42;11.77;;;13.60;93.60;;;;;;5071676;28;20594;-64
2021/10/31 07:19:09;;;;;;;16.60;12.45;;;13.70;93.50;;;;;;5074043;28;20028;-64
2021/10/31 07:21:35;;;;;;;17.10;12.93;;;13.70;93.50;;;;;;5074002;28;20472;-64
2021/10/31 07:24:01;;;;;;;18.20;13.75;;;13.80;93.40;;;;;;5079543;28;20032;-64
2021/10/31 07:26:26;;;;;;;16.63;12.60;;;13.90;93.40;;;;;;5075309;28;20405;-64
2021/10/31 07:28:52;;;;;;;19.23;12.95;;;13.90;93.30;;;;;;5084875;28;20118;-64
2021/10/31 07:31:19;;;;;;;19.38;13.75;;;14.10;93.30;;;;;;5083746;28;20016;-63
2021/10/31 07:33:45;;;;;;;18.58;13.57;;;14.10;93.20;;;;;;5072047;28;20043;-62
2021/10/31 07:36:10;;;;;;;19.42;13.77;;;14.10;93.10;;;;;;5078184;28;20017;-63
2021/10/31 07:38:39;;;;;;;19.10;14.23;;;14.20;93.10;;;;;;5080089;28;20024;-63
2021/10/31 07:41:05;;;;;;;17.80;12.38;;;14.30;93.00;;;;;;5076885;28;20051;-63
2021/10/31 07:43:30;;;;;;;18.33;13.68;;;14.30;93.00;;;;;;5070341;28;20036;-63
2021/10/31 07:45:56;;;;;;;18.00;12.85;;;14.40;93.00;;;;;;5077852;28;20024;-63
2021/10/31 07:48:21;;;;;;;19.45;12.63;;;14.40;92.90;;;;;;5072009;28;20453;-62
2021/10/31 07:50:47;;;;;;;17.98;12.80;;;14.50;92.90;;;;;;5077802;28;20024;-63
2021/10/31 07:53:13;;;;;;;19.08;12.40;;;14.50;92.90;;;;;;5069971;28;21196;-63
2021/10/31 07:55:41;;;;;;;16.77;12.27;;;14.60;92.90;;;;;;5075885;28;20032;-63
2021/10/31 07:58:08;;;;;;;16.05;11.98;;;14.60;92.90;;;;;;5075311;28;20393;-63
2021/10/31 08:00:34;;;;;;;20.25;12.80;;;14.60;92.90;;;;;;5071232;28;20032;-63
2021/10/31 08:03:00;;;;;;;17.10;12.10;;;14.70;93.00;;;;;;5089608;28;20089;-63
2021/10/31 08:05:27;;;;;;;17.77;12.70;;;14.70;92.90;;;;;;5081976;28;20017;-63
2021/10/31 08:07:53;;;;;;;17.10;12.85;;;14.70;93.00;;;;;;5074190;28;20123;-63
2021/10/31 08:10:20;;;;;;;17.58;11.02;;;14.80;93.00;;;;;;5081706;28;20064;-63
2021/10/31 08:12:45;;;;;;;19.08;11.88;;;14.90;93.00;;;;;;5092848;28;20060;-63
2021/10/31 08:15:11;;;;;;;18.58;12.95;;;14.90;92.90;;;;;;5089191;28;20078;-63
2021/10/31 08:17:38;;;;;;;15.95;11.40;;;15.00;93.00;;;;;;5081223;28;20036;-62
2021/10/31 08:20:04;;;;;;;15.43;11.75;;;15.00;93.00;;;;;;5078968;28;20032;-62
2021/10/31 08:22:29;;;;;;;14.93;10.88;;;15.10;93.00;;;;;;5077304;28;20031;-62
2021/10/31 08:24:56;;;;;;;19.45;12.20;;;15.10;92.90;;;;;;5084845;28;20029;-62
2021/10/31 08:27:21;;;;;;;17.98;12.48;;;15.10;92.90;;;;;;5078849;28;20062;-63
2021/10/31 08:29:47;;;;;;;21.50;14.95;;;15.10;92.80;;;;;;5075208;28;20111;-62
2021/10/31 08:32:14;;;;;;;21.17;13.50;;;15.20;92.80;;;;;;5092363;28;20052;-63
2021/10/31 08:34:39;;;;;;;16.77;12.77;;;15.20;92.80;;;;;;5082794;28;20024;-63
2021/10/31 08:37:05;;;;;;;18.65;14.25;;;15.20;92.70;;;;;;5083569;28;20024;-62
2021/10/31 08:39:31;;;;;;;17.40;12.52;;;15.20;92.60;;;;;;5081865;28;20032;-62
2021/10/31 08:41:57;;;;;;;17.65;13.77;;;15.20;92.60;;;;;;5077746;28;20027;-62
2021/10/31 08:44:23;;;;;;;20.33;14.02;;;15.30;92.50;;;;;;5085013;28;20032;-63
2021/10/31 08:46:48;;;;;;;17.80;13.05;;;15.20;92.50;;;;;;5080335;28;20024;-62
2021/10/31 08:49:15;;;;;;;21.92;14.00;;;15.30;92.50;;;;;;5073429;28;20059;-63
2021/10/31 08:51:41;;;;;;;19.77;14.27;;;15.20;92.50;;;;;;5075762;28;20093;-63
2021/10/31 08:54:07;;;;;;;27.25;16.90;;;15.30;92.40;;;;;;5080766;28;20447;-64
2021/10/31 08:56:32;;;;;;;18.52;13.52;;;15.20;92.40;;;;;;5073478;28;20111;-63
2021/10/31 08:58:58;;;;;;;22.48;14.93;;;15.20;92.40;;;;;;5085001;28;20111;-63
2021/10/31 09:01:24;;;;;;;19.30;13.57;;;15.20;92.40;;;;;;5080088;28;20137;-63
2021/10/31 09:03:52;;;;;;;17.83;13.25;;;15.20;92.30;;;;;;5082916;28;20039;-62
2021/10/31 09:06:18;;;;;;;19.45;13.75;;;15.30;92.30;;;;;;5072167;28;20040;-63
2021/10/31 09:08:44;;;;;;;16.27;12.13;;;15.30;92.40;;;;;;5077606;28;20039;-63
2021/10/31 09:11:10;;;;;;;20.35;14.32;;;15.20;92.40;;;;;;5069950;28;20024;-63
2021/10/31 09:13:36;;;;;;;20.13;13.57;;;15.20;92.40;;;;;;5088987;28;20546;-62
2021/10/31 09:16:02;;;;;;;19.52;14.07;;;15.20;92.40;;;;;;5083303;28;20031;-62
2021/10/31 09:18:28;;;;;;;18.27;13.15;;;15.30;92.40;;;;;;5080420;28;20028;-63
2021/10/31 09:20:54;;;;;;;17.20;13.10;;;15.30;92.50;;;;;;5079811;28;20562;-62
2021/10/31 09:23:20;;;;;;;17.20;12.07;;;15.30;92.50;;;;;;5068670;28;20459;-62
2021/10/31 09:25:46;;;;;;;21.25;13.20;;;15.30;92.50;;;;;;5075437;28;20031;-62
2021/10/31 09:28:12;;;;;;;17.98;13.40;;;15.40;92.50;;;;;;5082387;28;20373;-63
2021/10/31 09:30:40;;;;;;;19.70;13.15;;;15.40;92.50;;;;;;5077943;28;20028;-62
2021/10/31 09:33:07;;;;;;;19.38;12.73;;;15.40;92.50;;;;;;5075195;28;20048;-62
2021/10/31 09:35:41;;;;;;;17.65;13.13;;;15.40;92.50;;;;;;5080123;28;20443;-62
2021/10/31 09:38:07;;;;;;;16.92;12.20;;;15.50;92.50;;;;;;5076364;28;20050;-62
2021/10/31 09:40:35;;;;;;;16.33;12.70;;;15.50;92.50;;;;;;5084131;28;20036;-63
2021/10/31 09:43:02;;;;;;;18.77;13.27;;;15.50;92.40;;;;;;5080739;28;20063;-63
2021/10/31 09:45:29;;;;;;;18.67;13.93;;;15.60;92.50;;;;;;5079190;28;20034;-63
2021/10/31 09:48:01;;;;;;;17.63;13.35;;;15.60;92.50;;;;;;5073911;28;20602;-63
2021/10/31 09:50:30;;;;;;;16.85;13.02;;;15.70;92.50;;;;;;5080424;28;20039;-63
2021/10/31 09:52:56;;;;;;;17.77;13.50;;;15.70;92.50;;;;;;5040157;28;986322;-63
2021/10/31 09:55:22;;;;;;;16.75;12.30;;;15.80;92.40;;;;;;5083064;28;20032;-63
2021/10/31 09:57:48;;;;;;;15.98;12.35;;;15.80;92.40;;;;;;5060801;28;20031;-63
2021/10/31 10:00:15;;;;;;;17.50;12.35;;;15.80;92.30;;;;;;5077204;28;20021;-63
2021/10/31 10:05:17;;;;;;;;;;;15.90;92.30;;;;;;5079071;28;20071;-63
2021/10/31 10:07:42;;;;;;;20.02;13.23;;;16.00;92.40;;;;;;5083344;28;19908;-63
2021/10/31 10:10:12;;;;;;;20.52;13.98;;;16.00;92.30;;;;;;5082418;28;20028;-63
2021/10/31 10:12:38;;;;;;;17.85;12.43;;;16.00;92.30;;;;;;5081851;28;20117;-63
2021/10/31 10:15:07;;;;;;;18.50;13.68;;;16.10;92.20;;;;;;5072186;28;20079;-63
2021/10/31 10:17:50;;;;;;;19.55;13.35;;;16.20;92.20;;;;;;5075616;28;20046;-63
2021/10/31 10:20:17;;;;;;;17.23;12.95;;;16.20;92.20;;;;;;5083880;28;20043;-63
2021/10/31 10:22:43;;;;;;;17.48;12.70;;;16.30;92.10;;;;;;5078752;28;20032;-63
2021/10/31 10:25:09;;;;;;;16.77;12.32;;;16.40;92.20;;;;;;5082870;28;20039;-63
2021/10/31 10:27:54;;;;;;;18.67;13.07;;;16.40;92.10;;;;;;5073210;28;20028;-63
2021/10/31 10:30:24;;;;;;;16.17;12.63;;;16.40;91.90;;;;;;5080980;28;20032;-63
2021/10/31 10:32:58;;;;;;;17.50;12.32;;;16.50;91.90;;;;;;5072095;28;20024;-63
2021/10/31 10:35:26;;;;;;;17.52;12.80;;;16.50;91.80;;;;;;5077433;28;20172;-63
2021/10/31 10:37:53;;;;;;;18.70;13.00;;;16.60;91.80;;;;;;5100130;28;20028;-63
2021/10/31 10:40:24;;;;;;;15.02;11.52;;;16.70;91.70;;;;;;5078256;28;20032;-63
2021/10/31 10:42:58;;;;;;;15.35;12.05;;;16.80;91.70;;;;;;5071159;28;20050;-63
2021/10/31 10:45:31;;;;;;;14.93;11.65;;;16.80;91.70;;;;;;5072332;28;20052;-63
2021/10/31 10:48:03;;;;;;;14.80;11.33;;;16.90;91.60;;;;;;5075869;28;20101;-63
2021/10/31 10:50:34;;;;;;;12.77;9.70;;;16.90;91.70;;;;;;5090129;28;20035;-63
2021/10/31 10:53:00;;;;;;;14.32;10.45;;;17.00;91.60;;;;;;5073810;28;20048;-63
2021/10/31 10:55:30;;;;;;;14.60;10.20;;;17.10;91.70;;;;;;5071657;28;20487;-63
2021/10/31 10:57:59;;;;;;;13.52;9.65;;;17.10;91.70;;;;;;5071379;28;20028;-63
2021/10/31 11:00:36;;;;;;;12.82;10.27;;;17.20;91.70;;;;;;5073758;28;20415;-63
2021/10/31 11:03:04;;;;;;;12.80;9.90;;;17.20;91.60;;;;;;5071792;28;20503;-63
2021/10/31 11:05:31;;;;;;;14.13;10.18;;;17.30;91.60;;;;;;5080635;28;20024;-63
2021/10/31 11:07:59;;;;;;;13.93;10.23;;;17.30;91.70;;;;;;5073710;28;20028;-63
2021/10/31 11:10:28;;;;;;;13.75;10.10;;;17.40;91.60;;;;;;5078149;28;20484;-62
2021/10/31 11:12:59;;;;;;;12.75;9.80;;;17.40;91.50;;;;;;5070971;28;20024;-63
2021/10/31 11:15:28;;;;;;;11.52;9.65;;;17.40;91.50;;;;;;5071225;28;20024;-63
2021/10/31 11:17:57;;;;;;;12.65;10.05;;;17.50;91.50;;;;;;5070773;28;20119;-63
2021/10/31 11:20:29;;;;;;;15.25;10.50;;;17.50;91.50;;;;;;5075638;28;20041;-62
2021/10/31 11:22:57;;;;;;;15.48;10.70;;;17.60;91.50;;;;;;5071406;28;20446;-62
2021/10/31 11:25:25;;;;;;;13.15;10.20;;;17.50;91.50;;;;;;5075263;28;20460;-63
2021/10/31 11:27:53;;;;;;;13.13;10.05;;;17.60;91.40;;;;;;5082066;28;20073;-62
2021/10/31 11:30:20;;;;;;;13.35;9.70;;;17.60;91.40;;;;;;5078554;28;20440;-63
2021/10/31 11:32:47;;;;;;;14.63;10.82;;;17.60;91.40;;;;;;5077741;28;20376;-63
2021/10/31 11:35:16;;;;;;;15.63;10.65;;;17.60;91.50;;;;;;5080618;28;20099;-63
2021/10/31 11:37:46;;;;;;;12.40;9.15;;;17.60;91.50;;;;;;5085979;28;20115;-63
2021/10/31 11:40:13;;;;;;;18.23;11.40;;;17.70;91.40;;;;;;5073259;28;20369;-63
2021/10/31 11:42:48;;;;;;;14.75;9.73;;;17.70;91.40;;;;;;5081168;28;20027;-62
2021/10/31 11:45:23;;;;;;;11.95;9.00;;;17.80;91.40;;;;;;5080532;28;20537;-63
2021/10/31 11:48:13;;;;;;;12.82;8.85;;;17.80;91.40;;;;;;5072820;28;20396;-63
2021/10/31 11:50:41;;;;;;;11.05;8.07;;;17.80;91.40;;;;;;5076077;28;20479;-63
2021/10/31 11:53:18;;;;;;;13.13;8.45;;;17.90;91.30;;;;;;5074131;28;20060;-63
2021/10/31 11:55:51;;;;;;;10.90;7.93;;;17.90;91.30;;;;;;5070563;28;20035;-64
2021/10/31 11:58:22;;;;;;;10.43;7.82;;;17.90;91.30;;;;;;5080784;28;20035;-64
2021/10/31 12:00:52;;;;;;;11.50;8.02;;;18.00;91.40;;;;;;5081925;28;20386;-64
2021/10/31 12:03:38;;;;;;;11.20;8.18;;;18.00;91.30;;;;;;5075260;28;20024;-63
2021/10/31 12:06:16;;;;;;;10.63;8.07;;;18.00;91.30;;;;;;5062571;28;20029;-64
2021/10/31 12:08:56;;;;;;;11.52;7.80;;;18.00;91.20;;;;;;5078651;28;20885;-63
2021/10/31 12:11:35;;;;;;;9.32;7.20;;;18.10;91.20;;;;;;5073743;28;20023;-63
2021/10/31 12:14:08;;;;;;;10.75;8.52;;;18.10;91.10;;;;;;5069996;28;20178;-63
2021/10/31 12:16:57;;;;;;;13.97;8.87;;;18.10;91.10;;;;;;5070658;28;20047;-64
2021/10/31 12:19:25;;;;;;;11.80;9.63;;;18.20;91.10;;;;;;5077724;28;20282;-64
2021/10/31 12:22:10;;;;;;;10.82;8.40;;;18.20;91.00;;;;;;5071030;28;20032;-64
2021/10/31 12:24:56;;;;;;;12.13;8.82;;;18.20;90.90;;;;;;5077291;28;20036;-64
2021/10/31 12:27:38;;;;;;;10.50;8.90;;;18.30;90.90;;;;;;5075830;28;20032;-63
2021/10/31 12:30:25;;;;;;;12.05;9.35;;;18.30;90.80;;;;;;5080395;28;20020;-63
2021/10/31 12:33:09;;;;;;;10.98;9.20;;;18.30;90.70;;;;;;5075598;28;20033;-63
2021/10/31 12:35:38;;;;;;;12.35;8.90;;;18.40;90.70;;;;;;5080887;28;20016;-63
2021/10/31 12:38:15;;;;;;;10.63;9.02;;;18.40;90.70;;;;;;5075925;28;20091;-63